sensor_id;sensor_type;location;lat;lon;timestamp;temperature;humidity
24252;DHT22;12380;51.118;4.176;2023-04-03T00:00:35;4.70;99.90
24252;DHT22;12380;51.118;4.176;2023-04-03T00:03:00;4.90;99.90
24252;DHT22;12380;51.118;4.176;2023-04-03T00:05:26;5.20;99.90
24252;DHT22;12380;51.118;4.176;2023-04-03T00:07:54;5.00;99.90
24252;DHT22;12380;51.118;4.176;2023-04-03T00:10:20;4.90;99.90
24252;DHT22;12380;51.118;4.176;2023-04-03T00:12:46;4.70;99.90
24252;DHT22;12380;51.118;4.176;2023-04-03T00:15:12;4.70;99.90
24252;DHT22;12380;51.118;4.176;2023-04-03T00:17:38;4.80;99.90
24252;DHT22;12380;51.118;4.176;2023-04-03T00:20:04;4.90;99.90
24252;DHT22;12380;51.118;4.176;2023-04-03T00:22:30;4.70;99.90
24252;DHT22;12380;51.118;4.176;2023-04-03T00:24:56;4.70;99.90
24252;DHT22;12380;51.118;4.176;2023-04-03T00:27:21;4.90;99.90
24252;DHT22;12380;51.118;4.176;2023-04-03T00:29:47;5.10;99.90
24252;DHT22;12380;51.118;4.176;2023-04-03T00:32:15;4.90;99.90
24252;DHT22;12380;51.118;4.176;2023-04-03T00:34:41;4.80;99.90
24252;DHT22;12380;51.118;4.176;2023-04-03T00:37:07;4.80;99.90
24252;DHT22;12380;51.118;4.176;2023-04-03T00:39:32;5.00;99.90
24252;DHT22;12380;51.118;4.176;2023-04-03T00:41:58;5.00;99.90
24252;DHT22;12380;51.118;4.176;2023-04-03T00:47:00;5.30;99.90
24252;DHT22;12380;51.118;4.176;2023-04-03T00:49:27;5.40;99.90
24252;DHT22;12380;51.118;4.176;2023-04-03T00:51:54;5.30;99.90
24252;DHT22;12380;51.118;4.176;2023-04-03T00:54:20;4.90;99.90
24252;DHT22;12380;51.118;4.176;2023-04-03T00:56:46;4.70;99.90
24252;DHT22;12380;51.118;4.176;2023-04-03T00:59:18;4.80;99.90
24252;DHT22;12380;51.118;4.176;2023-04-03T01:01:48;4.90;99.90
24252;DHT22;12380;51.118;4.176;2023-04-03T01:04:49;5.00;99.90
24252;DHT22;12380;51.118;4.176;2023-04-03T01:09:41;5.00;99.90
24252;DHT22;12380;51.118;4.176;2023-04-03T01:12:20;4.90;99.90
24252;DHT22;12380;51.118;4.176;2023-04-03T01:14:50;5.00;99.90
24252;DHT22;12380;51.118;4.176;2023-04-03T01:17:46;5.00;99.90
24252;DHT22;12380;51.118;4.176;2023-04-03T01:25:31;5.00;99.90
24252;DHT22;12380;51.118;4.176;2023-04-03T01:27:58;4.80;99.90
24252;DHT22;12380;51.118;4.176;2023-04-03T01:30:28;4.80;99.90
24252;DHT22;12380;51.118;4.176;2023-04-03T01:33:00;4.70;99.90
24252;DHT22;12380;51.118;4.176;2023-04-03T01:35:26;4.50;99.90
24252;DHT22;12380;51.118;4.176;2023-04-03T01:37:52;4.60;99.90
24252;DHT22;12380;51.118;4.176;2023-04-03T01:40:17;4.70;99.90
24252;DHT22;12380;51.118;4.176;2023-04-03T01:42:48;4.70;99.90
24252;DHT22;12380;51.118;4.176;2023-04-03T01:45:14;4.90;99.90
24252;DHT22;12380;51.118;4.176;2023-04-03T01:47:40;5.00;99.90
24252;DHT22;12380;51.118;4.176;2023-04-03T01:50:06;4.70;99.90
24252;DHT22;12380;51.118;4.176;2023-04-03T01:52:32;4.70;99.90
24252;DHT22;12380;51.118;4.176;2023-04-03T01:55:00;4.80;99.90
24252;DHT22;12380;51.118;4.176;2023-04-03T01:57:26;4.90;99.90
24252;DHT22;12380;51.118;4.176;2023-04-03T01:59:52;5.00;99.90
24252;DHT22;12380;51.118;4.176;2023-04-03T02:02:17;5.00;99.90
24252;DHT22;12380;51.118;4.176;2023-04-03T02:04:45;5.10;99.90
24252;DHT22;12380;51.118;4.176;2023-04-03T02:07:15;4.90;99.90
24252;DHT22;12380;51.118;4.176;2023-04-03T02:09:40;4.90;99.90
24252;DHT22;12380;51.118;4.176;2023-04-03T02:12:06;4.90;99.90
24252;DHT22;12380;51.118;4.176;2023-04-03T02:14:32;4.80;99.90
24252;DHT22;12380;51.118;4.176;2023-04-03T02:16:59;4.80;99.90
24252;DHT22;12380;51.118;4.176;2023-04-03T02:19:26;4.80;99.90
24252;DHT22;12380;51.118;4.176;2023-04-03T02:21:54;4.90;99.90
24252;DHT22;12380;51.118;4.176;2023-04-03T02:24:22;4.70;99.90
24252;DHT22;12380;51.118;4.176;2023-04-03T02:26:48;4.70;99.90
24252;DHT22;12380;51.118;4.176;2023-04-03T02:29:16;4.70;99.90
24252;DHT22;12380;51.118;4.176;2023-04-03T02:31:42;4.80;99.90
24252;DHT22;12380;51.118;4.176;2023-04-03T02:34:08;4.60;99.90
24252;DHT22;12380;51.118;4.176;2023-04-03T02:36:33;4.40;99.90
24252;DHT22;12380;51.118;4.176;2023-04-03T02:38:59;4.40;99.90
24252;DHT22;12380;51.118;4.176;2023-04-03T02:41:25;4.30;99.90
24252;DHT22;12380;51.118;4.176;2023-04-03T02:44:03;4.20;99.90
24252;DHT22;12380;51.118;4.176;2023-04-03T02:46:29;4.40;99.90
24252;DHT22;12380;51.118;4.176;2023-04-03T02:48:55;4.50;99.90
24252;DHT22;12380;51.118;4.176;2023-04-03T02:51:20;4.30;99.90
24252;DHT22;12380;51.118;4.176;2023-04-03T02:53:52;4.20;99.90
24252;DHT22;12380;51.118;4.176;2023-04-03T02:56:17;4.20;99.90
24252;DHT22;12380;51.118;4.176;2023-04-03T02:58:46;4.20;99.90
24252;DHT22;12380;51.118;4.176;2023-04-03T03:01:15;4.20;99.90
24252;DHT22;12380;51.118;4.176;2023-04-03T03:03:41;4.20;99.90
24252;DHT22;12380;51.118;4.176;2023-04-03T03:06:10;4.20;99.90
24252;DHT22;12380;51.118;4.176;2023-04-03T03:08:38;4.50;99.90
24252;DHT22;12380;51.118;4.176;2023-04-03T03:11:05;4.50;99.90
24252;DHT22;12380;51.118;4.176;2023-04-03T03:13:31;4.40;99.90
24252;DHT22;12380;51.118;4.176;2023-04-03T03:16:00;4.30;99.90
24252;DHT22;12380;51.118;4.176;2023-04-03T03:18:26;4.10;99.90
24252;DHT22;12380;51.118;4.176;2023-04-03T03:20:56;4.10;99.90
24252;DHT22;12380;51.118;4.176;2023-04-03T03:23:24;4.10;99.90
24252;DHT22;12380;51.118;4.176;2023-04-03T03:25:55;4.10;99.90
24252;DHT22;12380;51.118;4.176;2023-04-03T03:28:21;4.20;99.90
24252;DHT22;12380;51.118;4.176;2023-04-03T03:30:49;4.30;99.90
24252;DHT22;12380;51.118;4.176;2023-04-03T03:33:15;4.00;99.90
24252;DHT22;12380;51.118;4.176;2023-04-03T03:35:43;4.10;99.90
24252;DHT22;12380;51.118;4.176;2023-04-03T03:38:09;4.10;99.90
24252;DHT22;12380;51.118;4.176;2023-04-03T03:40:37;3.90;99.90
24252;DHT22;12380;51.118;4.176;2023-04-03T03:43:06;3.60;99.90
24252;DHT22;12380;51.118;4.176;2023-04-03T03:45:32;3.50;99.90
24252;DHT22;12380;51.118;4.176;2023-04-03T03:47:58;3.40;99.90
24252;DHT22;12380;51.118;4.176;2023-04-03T03:50:26;3.30;99.90
24252;DHT22;12380;51.118;4.176;2023-04-03T03:52:52;3.30;99.90
24252;DHT22;12380;51.118;4.176;2023-04-03T03:55:17;3.40;99.90
24252;DHT22;12380;51.118;4.176;2023-04-03T03:57:43;3.30;99.90
24252;DHT22;12380;51.118;4.176;2023-04-03T04:00:12;3.20;99.90
24252;DHT22;12380;51.118;4.176;2023-04-03T04:02:38;3.20;99.90
24252;DHT22;12380;51.118;4.176;2023-04-03T04:05:04;3.10;99.90
24252;DHT22;12380;51.118;4.176;2023-04-03T04:07:30;3.10;99.90
24252;DHT22;12380;51.118;4.176;2023-04-03T04:09:56;3.00;99.90
24252;DHT22;12380;51.118;4.176;2023-04-03T04:12:24;3.00;99.90
24252;DHT22;12380;51.118;4.176;2023-04-03T04:14:49;3.00;99.90
24252;DHT22;12380;51.118;4.176;2023-04-03T04:17:18;2.90;99.90
24252;DHT22;12380;51.118;4.176;2023-04-03T04:19:44;2.90;99.90
24252;DHT22;12380;51.118;4.176;2023-04-03T04:22:10;2.90;99.90
24252;DHT22;12380;51.118;4.176;2023-04-03T04:24:35;3.00;99.90
24252;DHT22;12380;51.118;4.176;2023-04-03T04:27:03;3.10;99.90
24252;DHT22;12380;51.118;4.176;2023-04-03T04:29:31;3.10;99.90
24252;DHT22;12380;51.118;4.176;2023-04-03T04:32:03;3.10;99.90
24252;DHT22;12380;51.118;4.176;2023-04-03T04:34:29;3.10;99.90
24252;DHT22;12380;51.118;4.176;2023-04-03T04:36:55;3.00;99.90
24252;DHT22;12380;51.118;4.176;2023-04-03T04:39:20;3.00;99.90
24252;DHT22;12380;51.118;4.176;2023-04-03T04:41:46;3.00;99.90
24252;DHT22;12380;51.118;4.176;2023-04-03T04:44:12;3.00;99.90
24252;DHT22;12380;51.118;4.176;2023-04-03T04:46:39;2.90;99.90
24252;DHT22;12380;51.118;4.176;2023-04-03T04:49:04;3.10;99.90
24252;DHT22;12380;51.118;4.176;2023-04-03T04:51:31;3.00;99.90
24252;DHT22;12380;51.118;4.176;2023-04-03T04:53:56;3.10;99.90
24252;DHT22;12380;51.118;4.176;2023-04-03T04:56:22;3.00;99.90
24252;DHT22;12380;51.118;4.176;2023-04-03T04:58:50;2.80;99.90
24252;DHT22;12380;51.118;4.176;2023-04-03T05:01:16;3.00;99.90
24252;DHT22;12380;51.118;4.176;2023-04-03T05:03:44;2.90;99.90
24252;DHT22;12380;51.118;4.176;2023-04-03T05:06:10;2.80;99.90
24252;DHT22;12380;51.118;4.176;2023-04-03T05:08:36;2.70;99.90
24252;DHT22;12380;51.118;4.176;2023-04-03T05:11:01;2.70;99.90
24252;DHT22;12380;51.118;4.176;2023-04-03T05:13:27;2.70;99.90
24252;DHT22;12380;51.118;4.176;2023-04-03T05:15:56;2.70;99.90
24252;DHT22;12380;51.118;4.176;2023-04-03T05:18:21;2.60;99.90
24252;DHT22;12380;51.118;4.176;2023-04-03T05:20:49;2.60;99.90
24252;DHT22;12380;51.118;4.176;2023-04-03T05:23:15;2.80;99.90
24252;DHT22;12380;51.118;4.176;2023-04-03T05:25:41;2.90;99.90
24252;DHT22;12380;51.118;4.176;2023-04-03T05:28:09;3.00;99.90
24252;DHT22;12380;51.118;4.176;2023-04-03T05:30:35;3.00;99.90
24252;DHT22;12380;51.118;4.176;2023-04-03T05:33:01;3.20;99.90
24252;DHT22;12380;51.118;4.176;2023-04-03T05:35:33;3.00;99.90
24252;DHT22;12380;51.118;4.176;2023-04-03T05:38:00;3.20;99.90
24252;DHT22;12380;51.118;4.176;2023-04-03T05:40:28;3.70;99.90
24252;DHT22;12380;51.118;4.176;2023-04-03T05:42:56;3.70;99.90
24252;DHT22;12380;51.118;4.176;2023-04-03T05:45:25;3.80;99.90
24252;DHT22;12380;51.118;4.176;2023-04-03T05:47:51;4.00;99.90
24252;DHT22;12380;51.118;4.176;2023-04-03T05:50:16;4.10;99.90
24252;DHT22;12380;51.118;4.176;2023-04-03T05:52:45;4.10;99.90
24252;DHT22;12380;51.118;4.176;2023-04-03T05:55:12;4.00;99.90
24252;DHT22;12380;51.118;4.176;2023-04-03T05:57:40;4.10;99.90
24252;DHT22;12380;51.118;4.176;2023-04-03T06:00:11;4.10;99.90
24252;DHT22;12380;51.118;4.176;2023-04-03T06:02:40;4.20;99.90
24252;DHT22;12380;51.118;4.176;2023-04-03T06:05:07;3.90;99.90
24252;DHT22;12380;51.118;4.176;2023-04-03T06:07:34;3.70;99.90
24252;DHT22;12380;51.118;4.176;2023-04-03T06:10:00;3.50;99.90
24252;DHT22;12380;51.118;4.176;2023-04-03T06:12:27;3.80;99.90
24252;DHT22;12380;51.118;4.176;2023-04-03T06:14:54;3.70;99.90
24252;DHT22;12380;51.118;4.176;2023-04-03T06:17:20;3.70;99.90
24252;DHT22;12380;51.118;4.176;2023-04-03T06:19:46;4.10;99.90
24252;DHT22;12380;51.118;4.176;2023-04-03T06:22:12;4.10;99.90
24252;DHT22;12380;51.118;4.176;2023-04-03T06:24:38;4.30;99.90
24252;DHT22;12380;51.118;4.176;2023-04-03T06:27:04;4.30;99.90
24252;DHT22;12380;51.118;4.176;2023-04-03T06:29:30;4.30;99.90
24252;DHT22;12380;51.118;4.176;2023-04-03T06:31:56;4.10;99.90
24252;DHT22;12380;51.118;4.176;2023-04-03T06:34:22;4.20;99.90
24252;DHT22;12380;51.118;4.176;2023-04-03T06:36:48;4.30;99.90
24252;DHT22;12380;51.118;4.176;2023-04-03T06:39:21;4.50;99.90
24252;DHT22;12380;51.118;4.176;2023-04-03T06:41:51;4.30;99.90
24252;DHT22;12380;51.118;4.176;2023-04-03T06:44:17;4.20;99.90
24252;DHT22;12380;51.118;4.176;2023-04-03T06:46:44;4.10;99.90
24252;DHT22;12380;51.118;4.176;2023-04-03T06:49:10;4.20;99.90
24252;DHT22;12380;51.118;4.176;2023-04-03T06:51:39;4.10;99.90
24252;DHT22;12380;51.118;4.176;2023-04-03T06:54:05;4.10;99.90
24252;DHT22;12380;51.118;4.176;2023-04-03T06:56:31;4.30;99.90
24252;DHT22;12380;51.118;4.176;2023-04-03T06:58:58;4.60;99.90
24252;DHT22;12380;51.118;4.176;2023-04-03T07:01:26;5.00;99.90
24252;DHT22;12380;51.118;4.176;2023-04-03T07:03:53;5.30;99.90
24252;DHT22;12380;51.118;4.176;2023-04-03T07:06:19;5.80;99.90
24252;DHT22;12380;51.118;4.176;2023-04-03T07:08:48;6.50;99.90
24252;DHT22;12380;51.118;4.176;2023-04-03T07:11:14;6.90;99.90
24252;DHT22;12380;51.118;4.176;2023-04-03T07:13:41;7.20;99.90
24252;DHT22;12380;51.118;4.176;2023-04-03T07:16:07;7.60;99.90
24252;DHT22;12380;51.118;4.176;2023-04-03T07:18:34;7.60;99.90
24252;DHT22;12380;51.118;4.176;2023-04-03T07:21:00;8.30;99.90
24252;DHT22;12380;51.118;4.176;2023-04-03T07:23:26;8.80;99.90
24252;DHT22;12380;51.118;4.176;2023-04-03T07:25:52;9.30;99.90
24252;DHT22;12380;51.118;4.176;2023-04-03T07:28:22;9.60;99.90
24252;DHT22;12380;51.118;4.176;2023-04-03T07:31:01;10.00;99.90
24252;DHT22;12380;51.118;4.176;2023-04-03T07:33:27;10.30;99.90
24252;DHT22;12380;51.118;4.176;2023-04-03T07:35:53;10.30;99.90
24252;DHT22;12380;51.118;4.176;2023-04-03T07:38:19;10.80;99.90
24252;DHT22;12380;51.118;4.176;2023-04-03T07:40:47;11.00;99.90
24252;DHT22;12380;51.118;4.176;2023-04-03T07:43:17;11.00;99.90
24252;DHT22;12380;51.118;4.176;2023-04-03T07:45:43;11.20;99.90
24252;DHT22;12380;51.118;4.176;2023-04-03T07:48:12;11.30;99.90
24252;DHT22;12380;51.118;4.176;2023-04-03T07:50:41;11.50;99.90
24252;DHT22;12380;51.118;4.176;2023-04-03T07:53:07;11.60;99.90
24252;DHT22;12380;51.118;4.176;2023-04-03T07:55:33;12.00;99.90
24252;DHT22;12380;51.118;4.176;2023-04-03T07:58:02;12.10;99.90
24252;DHT22;12380;51.118;4.176;2023-04-03T08:00:28;12.40;99.90
24252;DHT22;12380;51.118;4.176;2023-04-03T08:02:55;12.40;99.90
24252;DHT22;12380;51.118;4.176;2023-04-03T08:05:21;11.90;99.90
24252;DHT22;12380;51.118;4.176;2023-04-03T08:07:48;12.50;99.90
24252;DHT22;12380;51.118;4.176;2023-04-03T08:10:15;12.70;99.90
24252;DHT22;12380;51.118;4.176;2023-04-03T08:12:46;13.00;99.90
24252;DHT22;12380;51.118;4.176;2023-04-03T08:15:12;13.30;99.90
24252;DHT22;12380;51.118;4.176;2023-04-03T08:17:38;13.60;99.90
24252;DHT22;12380;51.118;4.176;2023-04-03T08:20:07;13.40;99.90
24252;DHT22;12380;51.118;4.176;2023-04-03T08:22:34;13.50;99.90
24252;DHT22;12380;51.118;4.176;2023-04-03T08:25:01;13.80;99.90
24252;DHT22;12380;51.118;4.176;2023-04-03T08:27:27;13.60;99.90
24252;DHT22;12380;51.118;4.176;2023-04-03T08:29:54;13.80;99.90
24252;DHT22;12380;51.118;4.176;2023-04-03T08:32:20;13.70;99.90
24252;DHT22;12380;51.118;4.176;2023-04-03T08:34:46;13.50;99.90
24252;DHT22;12380;51.118;4.176;2023-04-03T08:37:14;14.10;99.90
24252;DHT22;12380;51.118;4.176;2023-04-03T08:39:42;14.10;99.90
24252;DHT22;12380;51.118;4.176;2023-04-03T08:45:16;14.40;99.90
24252;DHT22;12380;51.118;4.176;2023-04-03T08:50:17;14.40;99.90
24252;DHT22;12380;51.118;4.176;2023-04-03T08:52:56;14.40;99.90
24252;DHT22;12380;51.118;4.176;2023-04-03T08:58:03;14.60;99.90
24252;DHT22;12380;51.118;4.176;2023-04-03T09:00:38;14.10;99.90
24252;DHT22;12380;51.118;4.176;2023-04-03T09:03:12;14.30;99.90
24252;DHT22;12380;51.118;4.176;2023-04-03T09:08:31;14.20;99.90
24252;DHT22;12380;51.118;4.176;2023-04-03T09:13:33;14.30;99.90
24252;DHT22;12380;51.118;4.176;2023-04-03T09:16:19;14.30;99.90
24252;DHT22;12380;51.118;4.176;2023-04-03T09:18:51;13.80;99.90
24252;DHT22;12380;51.118;4.176;2023-04-03T09:21:25;13.60;99.90
24252;DHT22;12380;51.118;4.176;2023-04-03T09:23:58;13.90;99.90
24252;DHT22;12380;51.118;4.176;2023-04-03T09:26:30;14.10;99.90
24252;DHT22;12380;51.118;4.176;2023-04-03T09:29:06;14.70;99.90
24252;DHT22;12380;51.118;4.176;2023-04-03T09:31:42;15.00;99.90
24252;DHT22;12380;51.118;4.176;2023-04-03T09:34:32;15.20;99.90
24252;DHT22;12380;51.118;4.176;2023-04-03T09:37:05;14.70;99.90
24252;DHT22;12380;51.118;4.176;2023-04-03T09:39:48;14.80;99.90
24252;DHT22;12380;51.118;4.176;2023-04-03T09:42:22;15.30;99.90
24252;DHT22;12380;51.118;4.176;2023-04-03T09:45:04;15.50;99.90
24252;DHT22;12380;51.118;4.176;2023-04-03T09:47:34;15.00;99.90
24252;DHT22;12380;51.118;4.176;2023-04-03T09:50:21;15.10;99.90
24252;DHT22;12380;51.118;4.176;2023-04-03T09:52:49;15.20;99.90
24252;DHT22;12380;51.118;4.176;2023-04-03T09:55:18;14.90;99.90
24252;DHT22;12380;51.118;4.176;2023-04-03T09:57:50;14.70;97.70
24252;DHT22;12380;51.118;4.176;2023-04-03T10:02:54;14.00;99.90
24252;DHT22;12380;51.118;4.176;2023-04-03T10:05:31;14.40;99.90
24252;DHT22;12380;51.118;4.176;2023-04-03T10:10:41;14.50;99.90
24252;DHT22;12380;51.118;4.176;2023-04-03T10:15:46;14.70;99.90
24252;DHT22;12380;51.118;4.176;2023-04-03T10:18:37;14.70;99.90
24252;DHT22;12380;51.118;4.176;2023-04-03T10:24:10;14.10;99.90
24252;DHT22;12380;51.118;4.176;2023-04-03T10:29:46;15.10;99.90
24252;DHT22;12380;51.118;4.176;2023-04-03T10:32:52;14.20;96.30
24252;DHT22;12380;51.118;4.176;2023-04-03T10:38:08;14.60;99.90
24252;DHT22;12380;51.118;4.176;2023-04-03T10:43:49;15.50;99.90
24252;DHT22;12380;51.118;4.176;2023-04-03T10:46:27;15.60;97.40
24252;DHT22;12380;51.118;4.176;2023-04-03T10:51:46;14.90;98.40
24252;DHT22;12380;51.118;4.176;2023-04-03T10:54:24;14.50;95.50
24252;DHT22;12380;51.118;4.176;2023-04-03T10:57:01;14.70;99.90
24252;DHT22;12380;51.118;4.176;2023-04-03T10:59:59;14.70;97.00
24252;DHT22;12380;51.118;4.176;2023-04-03T11:02:36;15.40;95.50
24252;DHT22;12380;51.118;4.176;2023-04-03T11:05:13;16.10;98.80
24252;DHT22;12380;51.118;4.176;2023-04-03T11:07:45;16.30;95.40
24252;DHT22;12380;51.118;4.176;2023-04-03T11:10:47;16.50;92.80
24252;DHT22;12380;51.118;4.176;2023-04-03T11:13:15;16.50;91.40
24252;DHT22;12380;51.118;4.176;2023-04-03T11:15:44;16.10;90.10
24252;DHT22;12380;51.118;4.176;2023-04-03T11:18:27;15.60;92.90
24252;DHT22;12380;51.118;4.176;2023-04-03T11:21:12;15.40;92.70
24252;DHT22;12380;51.118;4.176;2023-04-03T11:23:40;14.90;91.90
24252;DHT22;12380;51.118;4.176;2023-04-03T11:26:11;14.70;87.20
24252;DHT22;12380;51.118;4.176;2023-04-03T11:28:38;14.50;79.30
24252;DHT22;12380;51.118;4.176;2023-04-03T11:39:58;15.20;81.90
24252;DHT22;12380;51.118;4.176;2023-04-03T11:47:54;15.60;76.00
24252;DHT22;12380;51.118;4.176;2023-04-03T11:50:50;14.30;77.90
24252;DHT22;12380;51.118;4.176;2023-04-03T11:53:37;13.70;78.90
24252;DHT22;12380;51.118;4.176;2023-04-03T11:59:21;15.20;82.90
24252;DHT22;12380;51.118;4.176;2023-04-03T12:01:52;15.40;81.30
24252;DHT22;12380;51.118;4.176;2023-04-03T12:04:23;15.90;79.40
24252;DHT22;12380;51.118;4.176;2023-04-03T12:14:51;16.30;69.40
24252;DHT22;12380;51.118;4.176;2023-04-03T12:17:26;16.40;75.50
24252;DHT22;12380;51.118;4.176;2023-04-03T12:19:55;15.50;62.80
24252;DHT22;12380;51.118;4.176;2023-04-03T12:22:23;15.10;71.10
24252;DHT22;12380;51.118;4.176;2023-04-03T12:24:57;15.40;70.50
24252;DHT22;12380;51.118;4.176;2023-04-03T12:27:44;15.20;59.60
24252;DHT22;12380;51.118;4.176;2023-04-03T12:30:27;14.60;74.50
24252;DHT22;12380;51.118;4.176;2023-04-03T12:33:11;15.30;76.70
24252;DHT22;12380;51.118;4.176;2023-04-03T12:36:02;15.70;80.30
24252;DHT22;12380;51.118;4.176;2023-04-03T12:38:55;15.80;59.50
24252;DHT22;12380;51.118;4.176;2023-04-03T12:41:42;15.80;69.20
24252;DHT22;12380;51.118;4.176;2023-04-03T12:46:50;15.80;61.40
24252;DHT22;12380;51.118;4.176;2023-04-03T12:49:37;15.70;62.00
24252;DHT22;12380;51.118;4.176;2023-04-03T12:52:16;15.50;61.80
24252;DHT22;12380;51.118;4.176;2023-04-03T12:54:46;15.50;57.10
24252;DHT22;12380;51.118;4.176;2023-04-03T12:57:19;15.50;58.90
24252;DHT22;12380;51.118;4.176;2023-04-03T12:59:46;15.40;53.60
24252;DHT22;12380;51.118;4.176;2023-04-03T13:02:30;14.40;53.90
24252;DHT22;12380;51.118;4.176;2023-04-03T13:04:58;14.00;58.00
24252;DHT22;12380;51.118;4.176;2023-04-03T13:07:36;14.30;56.90
24252;DHT22;12380;51.118;4.176;2023-04-03T13:10:24;14.60;60.20
24252;DHT22;12380;51.118;4.176;2023-04-03T13:12:55;15.10;58.20
24252;DHT22;12380;51.118;4.176;2023-04-03T13:15:27;15.50;57.00
24252;DHT22;12380;51.118;4.176;2023-04-03T13:17:53;15.40;58.00
24252;DHT22;12380;51.118;4.176;2023-04-03T13:20:29;15.10;51.20
24252;DHT22;12380;51.118;4.176;2023-04-03T13:25:30;13.90;53.60
24252;DHT22;12380;51.118;4.176;2023-04-03T13:27:59;14.40;52.80
24252;DHT22;12380;51.118;4.176;2023-04-03T13:30:36;14.60;50.60
24252;DHT22;12380;51.118;4.176;2023-04-03T13:33:05;14.30;52.50
24252;DHT22;12380;51.118;4.176;2023-04-03T13:35:38;13.90;52.00
24252;DHT22;12380;51.118;4.176;2023-04-03T13:40:49;14.60;54.80
24252;DHT22;12380;51.118;4.176;2023-04-03T13:43:28;14.40;51.30
24252;DHT22;12380;51.118;4.176;2023-04-03T13:48:46;14.50;52.60
24252;DHT22;12380;51.118;4.176;2023-04-03T13:53:55;14.10;53.50
24252;DHT22;12380;51.118;4.176;2023-04-03T13:56:24;14.40;54.70
24252;DHT22;12380;51.118;4.176;2023-04-03T13:59:02;14.50;56.90
24252;DHT22;12380;51.118;4.176;2023-04-03T14:01:47;14.80;55.80
24252;DHT22;12380;51.118;4.176;2023-04-03T14:04:25;14.60;54.20
24252;DHT22;12380;51.118;4.176;2023-04-03T14:06:52;14.90;56.80
24252;DHT22;12380;51.118;4.176;2023-04-03T14:09:19;15.00;53.60
24252;DHT22;12380;51.118;4.176;2023-04-03T14:11:48;15.50;56.10
24252;DHT22;12380;51.118;4.176;2023-04-03T14:14:21;15.50;51.50
24252;DHT22;12380;51.118;4.176;2023-04-03T14:16:51;15.00;50.40
24252;DHT22;12380;51.118;4.176;2023-04-03T14:19:31;15.10;48.40
24252;DHT22;12380;51.118;4.176;2023-04-03T14:21:59;15.00;52.90
24252;DHT22;12380;51.118;4.176;2023-04-03T14:24:25;15.10;51.80
24252;DHT22;12380;51.118;4.176;2023-04-03T14:26:54;14.90;49.30
24252;DHT22;12380;51.118;4.176;2023-04-03T14:29:21;14.80;52.90
24252;DHT22;12380;51.118;4.176;2023-04-03T14:31:49;15.20;54.10
24252;DHT22;12380;51.118;4.176;2023-04-03T14:34:19;15.30;50.90
24252;DHT22;12380;51.118;4.176;2023-04-03T14:36:48;15.70;56.10
24252;DHT22;12380;51.118;4.176;2023-04-03T14:39:18;15.60;50.30
24252;DHT22;12380;51.118;4.176;2023-04-03T14:41:46;15.10;45.50
24252;DHT22;12380;51.118;4.176;2023-04-03T14:44:12;14.90;47.40
24252;DHT22;12380;51.118;4.176;2023-04-03T14:46:41;14.90;45.70
24252;DHT22;12380;51.118;4.176;2023-04-03T14:49:18;15.00;50.90
24252;DHT22;12380;51.118;4.176;2023-04-03T14:51:48;15.00;48.50
24252;DHT22;12380;51.118;4.176;2023-04-03T14:54:20;15.20;49.90
24252;DHT22;12380;51.118;4.176;2023-04-03T14:56:53;15.40;50.40
24252;DHT22;12380;51.118;4.176;2023-04-03T14:59:22;15.60;50.10
24252;DHT22;12380;51.118;4.176;2023-04-03T15:01:48;15.30;47.00
24252;DHT22;12380;51.118;4.176;2023-04-03T15:04:19;15.20;49.00
24252;DHT22;12380;51.118;4.176;2023-04-03T15:06:46;14.20;43.10
24252;DHT22;12380;51.118;4.176;2023-04-03T15:11:49;13.50;43.80
24252;DHT22;12380;51.118;4.176;2023-04-03T15:14:15;13.50;47.50
24252;DHT22;12380;51.118;4.176;2023-04-03T15:16:41;13.70;45.50
24252;DHT22;12380;51.118;4.176;2023-04-03T15:19:07;13.90;47.90
24252;DHT22;12380;51.118;4.176;2023-04-03T15:21:38;14.00;45.60
24252;DHT22;12380;51.118;4.176;2023-04-03T15:24:05;14.00;47.50
24252;DHT22;12380;51.118;4.176;2023-04-03T15:26:34;14.10;52.20
24252;DHT22;12380;51.118;4.176;2023-04-03T15:29:03;14.20;48.20
24252;DHT22;12380;51.118;4.176;2023-04-03T15:31:28;14.20;48.40
24252;DHT22;12380;51.118;4.176;2023-04-03T15:33:54;14.40;49.70
24252;DHT22;12380;51.118;4.176;2023-04-03T15:36:25;14.60;49.30
24252;DHT22;12380;51.118;4.176;2023-04-03T15:38:50;14.10;43.40
24252;DHT22;12380;51.118;4.176;2023-04-03T15:41:16;13.60;44.40
24252;DHT22;12380;51.118;4.176;2023-04-03T15:43:45;13.10;48.30
24252;DHT22;12380;51.118;4.176;2023-04-03T15:46:10;13.20;46.90
24252;DHT22;12380;51.118;4.176;2023-04-03T15:48:37;13.20;45.20
24252;DHT22;12380;51.118;4.176;2023-04-03T15:51:04;13.40;48.00
24252;DHT22;12380;51.118;4.176;2023-04-03T15:53:30;13.40;45.80
24252;DHT22;12380;51.118;4.176;2023-04-03T15:55:58;13.60;48.80
24252;DHT22;12380;51.118;4.176;2023-04-03T15:58:26;13.50;46.50
24252;DHT22;12380;51.118;4.176;2023-04-03T16:00:54;13.40;48.40
24252;DHT22;12380;51.118;4.176;2023-04-03T16:03:21;13.30;45.40
24252;DHT22;12380;51.118;4.176;2023-04-03T16:05:48;13.00;43.70
24252;DHT22;12380;51.118;4.176;2023-04-03T16:08:17;12.80;45.60
24252;DHT22;12380;51.118;4.176;2023-04-03T16:10:46;12.70;45.40
24252;DHT22;12380;51.118;4.176;2023-04-03T16:13:14;12.90;42.70
24252;DHT22;12380;51.118;4.176;2023-04-03T16:15:43;12.70;45.40
24252;DHT22;12380;51.118;4.176;2023-04-03T16:18:09;12.40;45.50
24252;DHT22;12380;51.118;4.176;2023-04-03T16:20:38;12.40;44.30
24252;DHT22;12380;51.118;4.176;2023-04-03T16:23:04;12.30;47.10
24252;DHT22;12380;51.118;4.176;2023-04-03T16:25:30;12.10;44.90
24252;DHT22;12380;51.118;4.176;2023-04-03T16:27:56;11.90;45.10
24252;DHT22;12380;51.118;4.176;2023-04-03T16:30:22;11.90;48.10
24252;DHT22;12380;51.118;4.176;2023-04-03T16:32:50;11.80;50.30
24252;DHT22;12380;51.118;4.176;2023-04-03T16:35:16;12.00;51.70
24252;DHT22;12380;51.118;4.176;2023-04-03T16:37:43;12.20;55.90
24252;DHT22;12380;51.118;4.176;2023-04-03T16:40:09;12.30;50.70
24252;DHT22;12380;51.118;4.176;2023-04-03T16:42:35;12.10;49.70
24252;DHT22;12380;51.118;4.176;2023-04-03T16:45:01;12.00;50.30
24252;DHT22;12380;51.118;4.176;2023-04-03T16:47:29;11.80;49.10
24252;DHT22;12380;51.118;4.176;2023-04-03T16:49:55;11.60;50.50
24252;DHT22;12380;51.118;4.176;2023-04-03T16:52:21;11.40;49.60
24252;DHT22;12380;51.118;4.176;2023-04-03T16:54:49;11.40;53.10
24252;DHT22;12380;51.118;4.176;2023-04-03T16:57:17;11.40;47.70
24252;DHT22;12380;51.118;4.176;2023-04-03T16:59:42;11.20;49.00
24252;DHT22;12380;51.118;4.176;2023-04-03T17:02:08;11.10;48.30
24252;DHT22;12380;51.118;4.176;2023-04-03T17:04:34;11.10;52.10
24252;DHT22;12380;51.118;4.176;2023-04-03T17:07:02;10.90;52.70
24252;DHT22;12380;51.118;4.176;2023-04-03T17:09:32;10.80;52.90
24252;DHT22;12380;51.118;4.176;2023-04-03T17:11:58;10.70;54.30
24252;DHT22;12380;51.118;4.176;2023-04-03T17:14:24;10.70;55.10
24252;DHT22;12380;51.118;4.176;2023-04-03T17:16:50;10.40;56.80
24252;DHT22;12380;51.118;4.176;2023-04-03T17:19:16;10.30;59.30